Time;durP1;ratioP1;P1;durP2;ratioP2;P2;SDS_P1;SDS_P2;PMS_P1;PMS_P2;Temp;Humidity;BMP_temperature;BMP_pressure;BME280_temperature;BME280_humidity;BME280_pressure;Samples;Min_cycle;Max_cycle;Signal;HPM_P1;HPM_P2
2022/10/08 00:00:54;;;;;;;13.02;3.63;;;13.60;99.90;;;;;;5072068;28;20085;-70
2022/10/08 00:03:23;;;;;;;20.02;4.38;;;13.60;99.90;;;;;;5071751;28;20037;-67
2022/10/08 00:05:55;;;;;;;16.83;3.40;;;13.70;99.90;;;;;;5072373;28;20023;-67
2022/10/08 00:08:21;;;;;;;;;;;13.80;99.90;;;;;;5072494;28;20389;-67
2022/10/08 00:10:56;;;;;;;12.25;3.22;;;13.60;99.90;;;;;;5071612;28;19961;-70
2022/10/08 00:13:22;;;;;;;19.92;3.30;;;13.70;99.90;;;;;;5071820;28;20033;-69
2022/10/08 00:15:48;;;;;;;13.80;3.20;;;13.80;99.90;;;;;;5072219;28;20377;-69
2022/10/08 00:18:13;;;;;;;15.15;3.85;;;13.80;99.90;;;;;;5071083;28;20021;-66
2022/10/08 00:20:39;;;;;;;20.92;4.47;;;13.70;99.90;;;;;;5072463;28;20508;-70
2022/10/08 00:23:05;;;;;;;17.65;3.60;;;13.70;99.90;;;;;;5072018;28;20025;-68
2022/10/08 00:25:30;;;;;;;22.83;3.75;;;13.80;99.90;;;;;;5054271;28;20401;-69
2022/10/08 00:27:56;;;;;;;15.07;3.10;;;14.00;99.90;;;;;;5071496;28;20159;-66
2022/10/08 00:30:22;;;;;;;20.75;3.25;;;14.00;99.90;;;;;;5053578;28;20032;-66
2022/10/08 00:32:47;;;;;;;19.90;3.70;;;14.10;99.90;;;;;;5071921;28;20110;-69
2022/10/08 00:35:13;;;;;;;14.57;3.17;;;14.10;99.90;;;;;;5072438;28;20017;-69
2022/10/08 00:37:39;;;;;;;14.30;2.85;;;14.10;99.90;;;;;;5071257;28;20036;-67
2022/10/08 00:40:05;;;;;;;22.92;3.63;;;14.10;99.90;;;;;;5071172;28;20048;-66
2022/10/08 00:42:31;;;;;;;18.58;3.20;;;14.40;99.90;;;;;;5053625;28;20393;-68
2022/10/08 00:45:02;;;;;;;15.13;3.17;;;14.20;99.90;;;;;;5070982;28;20034;-66
2022/10/08 00:47:28;;;;;;;17.50;3.40;;;14.10;99.90;;;;;;5071247;28;20389;-65
2022/10/08 00:49:57;;;;;;;17.20;3.58;;;14.00;99.90;;;;;;5070844;28;20032;-66
2022/10/08 00:52:27;;;;;;;18.92;3.28;;;13.90;99.90;;;;;;5070873;28;20499;-66
2022/10/08 00:54:53;;;;;;;14.23;2.65;;;13.80;99.90;;;;;;5071280;28;20029;-68
2022/10/08 00:57:20;;;;;;;27.25;3.67;;;13.70;99.90;;;;;;5072870;28;20047;-66
2022/10/08 00:59:46;;;;;;;15.38;3.25;;;13.70;99.90;;;;;;5074375;28;20019;-69
2022/10/08 01:02:13;;;;;;;26.20;4.10;;;13.60;99.90;;;;;;5075261;28;20432;-69
2022/10/08 01:04:41;;;;;;;23.02;3.88;;;13.50;99.90;;;;;;5074649;28;20055;-66
2022/10/08 01:07:10;;;;;;;19.42;3.92;;;13.30;99.90;;;;;;5075146;28;20056;-67
2022/10/08 01:09:55;;;;;;;18.70;3.58;;;13.40;99.90;;;;;;5057391;28;20493;-67
2022/10/08 01:12:49;;;;;;;12.18;4.00;;;13.40;99.90;;;;;;5074142;28;20040;-67
2022/10/08 01:15:23;;;;;;;17.33;4.35;;;13.30;99.90;;;;;;5075240;28;20060;-69
2022/10/08 01:18:14;;;;;;;21.90;4.68;;;13.40;99.90;;;;;;5074987;28;20027;-69
2022/10/08 01:21:01;;;;;;;14.77;4.35;;;13.30;99.90;;;;;;5074418;28;20020;-68
2022/10/08 01:23:45;;;;;;;16.35;4.15;;;13.30;99.90;;;;;;5057028;28;20063;-67
2022/10/08 01:26:41;;;;;;;15.30;3.88;;;13.20;99.90;;;;;;5074690;28;20037;-70
2022/10/08 01:29:15;;;;;;;17.50;3.65;;;13.30;99.90;;;;;;5073204;28;20392;-67
2022/10/08 01:31:48;;;;;;;22.23;3.67;;;13.40;99.90;;;;;;5073975;28;20602;-67
2022/10/08 01:34:28;;;;;;;15.57;3.45;;;13.50;99.90;;;;;;5074728;28;20025;-67
2022/10/08 01:36:56;;;;;;;16.13;3.97;;;13.40;99.90;;;;;;5074735;28;20499;-67
2022/10/08 01:39:27;;;;;;;12.18;4.10;;;13.40;99.90;;;;;;5073741;28;20021;-68
2022/10/08 01:41:58;;;;;;;14.93;3.87;;;13.50;99.90;;;;;;5056595;28;20481;-69
2022/10/08 01:44:53;;;;;;;17.20;4.05;;;13.60;99.90;;;;;;5074433;28;20070;-67
2022/10/08 01:47:26;;;;;;;18.83;4.72;;;13.60;99.90;;;;;;5072319;28;20040;-67
2022/10/08 01:49:58;;;;;;;22.25;4.80;;;13.40;99.90;;;;;;5073721;28;20066;-67
2022/10/08 01:52:30;;;;;;;16.42;4.78;;;13.60;99.90;;;;;;5074169;28;20041;-67
2022/10/08 01:55:03;;;;;;;15.88;4.88;;;13.80;99.90;;;;;;5073976;28;20107;-70
2022/10/08 01:57:32;;;;;;;14.90;4.78;;;13.60;99.90;;;;;;5073514;28;20028;-67
2022/10/08 02:00:11;;;;;;;19.10;6.32;;;13.60;99.90;;;;;;5074174;28;20047;-69
2022/10/08 02:02:41;;;;;;;17.60;5.68;;;13.70;99.90;;;;;;5056777;28;20039;-67
2022/10/08 02:05:08;;;;;;;30.20;5.70;;;13.90;99.90;;;;;;5074230;28;20427;-67
2022/10/08 02:07:41;;;;;;;20.23;5.90;;;13.80;99.90;;;;;;5072946;28;20024;-67
2022/10/08 02:10:15;;;;;;;18.02;7.70;;;13.40;99.90;;;;;;5059798;28;20040;-67
2022/10/08 02:12:42;;;;;;;16.13;7.95;;;13.50;99.90;;;;;;5074165;28;20032;-67
2022/10/08 02:15:14;;;;;;;24.25;7.53;;;13.50;99.90;;;;;;5072928;28;20020;-67
2022/10/08 02:17:50;;;;;;;;;;;13.40;99.90;;;;;;5074566;28;20032;-67
2022/10/08 02:21:07;;;;;;;22.00;6.85;;;13.40;99.90;;;;;;5073539;28;19919;-68
2022/10/08 02:23:52;;;;;;;21.27;7.80;;;13.50;99.90;;;;;;5068419;28;20115;-67
2022/10/08 02:26:25;;;;;;;17.52;6.82;;;13.40;99.90;;;;;;5055898;28;20029;-67
2022/10/08 02:29:20;;;;;;;17.52;7.97;;;13.40;99.90;;;;;;5072969;28;20098;-67
2022/10/08 02:31:50;;;;;;;24.95;8.15;;;13.30;99.90;;;;;;5055920;28;20088;-67
2022/10/08 02:34:37;;;;;;;26.00;10.48;;;13.30;99.90;;;;;;5072146;28;20049;-67
2022/10/08 02:37:17;;;;;;;23.50;10.05;;;13.10;99.90;;;;;;5073455;28;20024;-67
2022/10/08 02:39:50;;;;;;;30.42;10.18;;;13.00;99.90;;;;;;5073370;28;20039;-70
2022/10/08 02:42:21;;;;;;;30.85;10.88;;;12.90;99.90;;;;;;5073423;28;20489;-67
2022/10/08 02:45:00;;;;;;;28.40;9.18;;;13.10;99.90;;;;;;5055094;28;20104;-68
2022/10/08 02:47:31;;;;;;;25.92;9.20;;;13.10;99.90;;;;;;5073523;28;20036;-67
2022/10/08 02:50:01;;;;;;;30.27;7.95;;;13.10;99.90;;;;;;5073196;28;20474;-67
2022/10/08 02:52:35;;;;;;;21.70;8.40;;;13.00;99.90;;;;;;5071937;28;20127;-67
2022/10/08 02:55:05;;;;;;;19.83;7.78;;;12.90;99.90;;;;;;5082504;28;20035;-69
2022/10/08 02:57:48;;;;;;;21.83;8.63;;;12.80;99.90;;;;;;5093108;28;20047;-67
2022/10/08 03:00:14;;;;;;;20.25;7.10;;;12.90;99.90;;;;;;5059442;28;20025;-68
2022/10/08 03:02:51;;;;;;;22.85;8.63;;;12.80;99.90;;;;;;5080069;28;20030;-67
2022/10/08 03:05:18;;;;;;;21.33;7.68;;;13.00;99.90;;;;;;5087066;28;20034;-68
2022/10/08 03:07:47;;;;;;;21.10;8.02;;;13.00;99.90;;;;;;5092863;28;20480;-67
2022/10/08 03:10:13;;;;;;;17.77;7.15;;;13.10;99.90;;;;;;5093171;28;20032;-68
2022/10/08 03:12:39;;;;;;;24.15;7.65;;;13.10;99.90;;;;;;5077545;28;20438;-68
2022/10/08 03:15:07;;;;;;;26.88;8.93;;;13.00;99.90;;;;;;5093110;28;20027;-69
2022/10/08 03:17:43;;;;;;;20.52;7.45;;;13.00;99.90;;;;;;5092566;28;20032;-68
2022/10/08 03:20:10;;;;;;;19.63;7.05;;;13.00;99.90;;;;;;5091785;28;20111;-68
2022/10/08 03:22:37;;;;;;;22.50;7.50;;;12.90;99.90;;;;;;5092662;28;20484;-67
2022/10/08 03:25:03;;;;;;;23.42;7.18;;;12.80;99.90;;;;;;5092776;28;20357;-68
2022/10/08 03:27:29;;;;;;;24.48;7.75;;;12.90;99.90;;;;;;5091879;28;20112;-68
2022/10/08 03:29:57;;;;;;;19.85;7.00;;;12.80;99.90;;;;;;5078814;28;20071;-67
2022/10/08 03:32:24;;;;;;;25.25;8.27;;;12.60;99.90;;;;;;5074733;28;20085;-68
2022/10/08 03:34:50;;;;;;;23.23;8.00;;;12.60;99.90;;;;;;5092951;28;20027;-68
2022/10/08 03:37:16;;;;;;;22.40;7.47;;;12.70;99.90;;;;;;5091836;28;20024;-68
2022/10/08 03:39:42;;;;;;;18.77;7.20;;;12.60;99.90;;;;;;5093565;28;20387;-68
2022/10/08 03:42:08;;;;;;;20.30;8.30;;;12.60;99.90;;;;;;5093875;28;20039;-67
2022/10/08 03:44:34;;;;;;;19.10;8.27;;;12.60;99.90;;;;;;5092865;28;20112;-68
2022/10/08 03:46:59;;;;;;;27.17;8.63;;;12.50;99.90;;;;;;5092068;28;20099;-68
2022/10/08 03:49:25;;;;;;;24.60;8.98;;;12.70;99.90;;;;;;5092684;28;20480;-68
2022/10/08 03:51:51;;;;;;;18.58;8.40;;;12.70;99.90;;;;;;5092001;28;20060;-68
2022/10/08 03:54:17;;;;;;;25.88;8.60;;;12.60;99.90;;;;;;5087902;28;20024;-68
2022/10/08 03:56:43;;;;;;;18.40;8.52;;;12.50;99.90;;;;;;5089290;28;20024;-70
2022/10/08 03:59:08;;;;;;;28.98;9.73;;;12.60;99.90;;;;;;5092444;28;20036;-68
2022/10/08 04:01:34;;;;;;;25.45;8.90;;;12.70;99.90;;;;;;5074417;28;20020;-68
2022/10/08 04:04:00;;;;;;;26.00;9.45;;;12.50;99.90;;;;;;5077549;28;20039;-68
2022/10/08 04:06:26;;;;;;;22.25;8.98;;;12.60;99.90;;;;;;5092412;28;20036;-68
2022/10/08 04:08:52;;;;;;;25.30;8.70;;;12.50;99.90;;;;;;5074225;28;20066;-68
2022/10/08 04:11:19;;;;;;;26.75;9.45;;;12.50;99.90;;;;;;5092434;28;20349;-68
2022/10/08 04:13:45;;;;;;;20.77;8.18;;;12.50;99.90;;;;;;5091407;28;20082;-68
2022/10/08 04:16:13;;;;;;;20.08;8.57;;;12.40;99.90;;;;;;5092499;28;20020;-68
2022/10/08 04:18:40;;;;;;;28.20;9.55;;;12.30;99.90;;;;;;5074396;28;20329;-68
2022/10/08 04:21:08;;;;;;;23.40;9.60;;;12.40;99.90;;;;;;5063499;28;20031;-68
2022/10/08 04:23:36;;;;;;;26.30;9.65;;;12.60;99.90;;;;;;5092062;28;20036;-68
2022/10/08 04:26:02;;;;;;;22.60;9.80;;;12.50;99.90;;;;;;5092226;28;20491;-68
2022/10/08 04:28:28;;;;;;;26.40;9.27;;;12.30;99.90;;;;;;5092337;28;20027;-68
2022/10/08 04:30:56;;;;;;;22.48;9.38;;;12.30;99.90;;;;;;5091847;28;20027;-68
2022/10/08 04:33:22;;;;;;;21.20;8.90;;;12.40;99.90;;;;;;5096100;28;20047;-68
2022/10/08 04:35:48;;;;;;;25.15;9.75;;;12.50;99.90;;;;;;5087146;28;20487;-68
2022/10/08 04:38:15;;;;;;;26.30;9.07;;;12.50;99.90;;;;;;5095986;28;20039;-67
2022/10/08 04:40:41;;;;;;;31.08;9.63;;;12.50;99.90;;;;;;5095216;28;20032;-68
2022/10/08 04:43:07;;;;;;;28.65;8.75;;;12.40;99.90;;;;;;5095656;28;20020;-68
2022/10/08 04:45:33;;;;;;;22.33;8.90;;;12.60;99.90;;;;;;5096121;28;20418;-68
2022/10/08 04:47:59;;;;;;;27.67;9.40;;;12.50;99.90;;;;;;5095545;28;20012;-68
2022/10/08 04:50:25;;;;;;;29.27;9.02;;;12.60;99.90;;;;;;5095194;28;20490;-68
2022/10/08 04:52:50;;;;;;;33.42;8.38;;;12.40;99.90;;;;;;5095430;28;20032;-68
2022/10/08 04:55:16;;;;;;;23.40;8.32;;;12.40;99.90;;;;;;5095769;28;20140;-68
2022/10/08 04:57:42;;;;;;;21.55;9.02;;;12.50;99.90;;;;;;5095248;28;20472;-68
2022/10/08 05:00:08;;;;;;;28.65;9.27;;;12.50;99.90;;;;;;5077465;28;20036;-67
2022/10/08 05:02:34;;;;;;;29.30;8.88;;;12.30;99.90;;;;;;5088051;28;20373;-67
2022/10/08 05:04:59;;;;;;;31.00;9.23;;;12.20;99.90;;;;;;5088843;28;20024;-68
2022/10/08 05:07:28;;;;;;;25.45;9.18;;;12.20;99.90;;;;;;5076930;28;20095;-67
2022/10/08 05:09:54;;;;;;;20.90;9.25;;;12.20;99.90;;;;;;5077400;28;20032;-68
2022/10/08 05:12:19;;;;;;;34.28;9.80;;;12.30;99.90;;;;;;5095313;28;20024;-68
2022/10/08 05:14:45;;;;;;;33.25;9.40;;;12.20;99.90;;;;;;5095190;28;20031;-68
2022/10/08 05:17:11;;;;;;;19.40;8.82;;;12.20;99.90;;;;;;5094450;28;20027;-68
2022/10/08 05:19:37;;;;;;;28.23;8.80;;;12.40;99.90;;;;;;5095055;28;20026;-68
2022/10/08 05:22:02;;;;;;;29.48;8.95;;;12.40;99.90;;;;;;5095512;28;20028;-68
2022/10/08 05:24:28;;;;;;;19.83;8.80;;;12.40;99.90;;;;;;5094957;28;20016;-68
2022/10/08 05:26:54;;;;;;;27.52;9.45;;;12.20;99.90;;;;;;5090220;28;20028;-68
2022/10/08 05:29:19;;;;;;;27.25;9.18;;;12.20;99.90;;;;;;5080281;28;20067;-68
2022/10/08 05:31:45;;;;;;;28.80;9.80;;;12.20;99.90;;;;;;5077762;28;20116;-68
2022/10/08 05:34:13;;;;;;;25.50;8.85;;;12.20;99.90;;;;;;5093772;28;20104;-68
2022/10/08 05:36:38;;;;;;;31.23;9.20;;;12.10;99.90;;;;;;5095025;28;20111;-68
2022/10/08 05:39:05;;;;;;;29.55;9.50;;;12.30;99.90;;;;;;5094754;28;20106;-68
2022/10/08 05:41:34;;;;;;;25.40;9.27;;;12.30;99.90;;;;;;5095076;28;20077;-68
2022/10/08 05:44:03;;;;;;;26.52;9.00;;;12.30;99.90;;;;;;5075435;28;20058;-68
2022/10/08 05:46:31;;;;;;;33.03;10.15;;;12.50;99.90;;;;;;5076671;28;20012;-68
2022/10/08 05:48:59;;;;;;;31.10;9.80;;;12.50;99.90;;;;;;5094644;28;20067;-68
2022/10/08 05:51:25;;;;;;;22.73;9.73;;;12.60;99.90;;;;;;5094337;28;20072;-68
2022/10/08 05:53:53;;;;;;;27.90;9.63;;;12.30;99.90;;;;;;5093966;28;20032;-68
2022/10/08 05:56:21;;;;;;;26.75;9.45;;;12.10;99.90;;;;;;5094376;28;20373;-68
2022/10/08 05:58:48;;;;;;;27.27;9.82;;;12.00;99.90;;;;;;5076477;28;20032;-68
2022/10/08 06:01:19;;;;;;;28.17;10.48;;;12.10;99.90;;;;;;5093426;28;20020;-67
2022/10/08 06:04:05;;;;;;;33.67;9.93;;;12.00;99.90;;;;;;5079994;28;20102;-68
2022/10/08 06:06:33;;;;;;;30.23;10.30;;;12.20;99.90;;;;;;5094325;28;20020;-68
2022/10/08 06:09:00;;;;;;;26.15;10.35;;;12.00;99.90;;;;;;5093751;28;20024;-68
2022/10/08 06:11:31;;;;;;;28.15;9.85;;;12.00;99.90;;;;;;5093638;28;20063;-68
2022/10/08 06:13:58;;;;;;;29.30;10.07;;;12.10;99.90;;;;;;5094267;28;20035;-67
2022/10/08 06:16:25;;;;;;;29.15;10.55;;;11.90;99.90;;;;;;5093817;28;20099;-68
2022/10/08 06:18:51;;;;;;;32.13;9.88;;;11.90;99.90;;;;;;5093380;28;20030;-67
2022/10/08 06:21:23;;;;;;;30.92;9.38;;;12.00;99.90;;;;;;5094010;28;20035;-67
2022/10/08 06:23:51;;;;;;;29.17;8.98;;;11.90;99.90;;;;;;5093673;28;20028;-67
2022/10/08 06:26:18;;;;;;;41.03;9.23;;;11.80;99.90;;;;;;5093890;28;20031;-68
2022/10/08 06:28:44;;;;;;;24.88;7.78;;;11.80;99.90;;;;;;5093169;28;20047;-68
2022/10/08 06:31:12;;;;;;;22.55;8.10;;;12.10;99.90;;;;;;5093010;28;20039;-68
2022/10/08 06:33:37;;;;;;;24.40;7.93;;;12.00;99.90;;;;;;5093666;28;20036;-69
2022/10/08 06:36:24;;;;;;;30.55;8.73;;;12.00;99.90;;;;;;5092872;28;20034;-67
2022/10/08 06:38:58;;;;;;;23.42;7.18;;;12.20;99.90;;;;;;5093916;28;20036;-67
2022/10/08 06:41:25;;;;;;;31.55;7.93;;;12.10;99.90;;;;;;5093552;28;20024;-67
2022/10/08 06:43:51;;;;;;;20.52;7.20;;;12.00;99.90;;;;;;5094004;28;20039;-68
2022/10/08 06:46:18;;;;;;;17.98;7.53;;;12.00;99.90;;;;;;5093159;28;20043;-67
2022/10/08 06:48:44;;;;;;;23.77;8.05;;;11.90;99.90;;;;;;5083927;28;20692;-68
2022/10/08 06:51:14;;;;;;;25.30;8.70;;;11.90;99.90;;;;;;5070338;28;20028;-67
2022/10/08 06:53:42;;;;;;;22.02;7.43;;;12.00;99.90;;;;;;5047211;28;20146;-67
2022/10/08 06:56:13;;;;;;;24.98;6.85;;;11.90;99.90;;;;;;5067421;28;20444;-67
2022/10/08 06:58:40;;;;;;;26.27;6.93;;;11.80;99.90;;;;;;5062466;28;20032;-67
2022/10/08 07:01:25;;;;;;;27.40;7.40;;;11.80;99.90;;;;;;5070170;28;20429;-69
2022/10/08 07:03:54;;;;;;;23.02;7.13;;;11.90;99.90;;;;;;5074556;28;20031;-67
2022/10/08 07:06:20;;;;;;;27.75;8.25;;;11.90;99.90;;;;;;5084103;28;20035;-68
2022/10/08 07:08:46;;;;;;;24.73;6.57;;;12.20;99.90;;;;;;5059373;28;20024;-68
2022/10/08 07:11:17;;;;;;;23.20;7.18;;;12.10;99.90;;;;;;5062744;28;20039;-71
2022/10/08 07:13:43;;;;;;;25.70;7.13;;;12.30;99.90;;;;;;5085874;28;20044;-67
2022/10/08 07:16:16;;;;;;;22.25;6.95;;;12.40;99.90;;;;;;5085270;28;20166;-67
2022/10/08 07:18:42;;;;;;;17.42;6.63;;;12.50;99.90;;;;;;5071759;28;20465;-67
2022/10/08 07:21:12;;;;;;;22.25;6.45;;;12.30;99.90;;;;;;5069285;28;20028;-68
2022/10/08 07:23:38;;;;;;;26.45;6.43;;;12.40;99.90;;;;;;5071763;28;20035;-67
2022/10/08 07:26:13;;;;;;;25.38;6.47;;;12.40;99.90;;;;;;5070281;28;20030;-67
2022/10/08 07:28:42;;;;;;;19.92;6.72;;;12.80;99.90;;;;;;5069998;28;20370;-67
2022/10/08 07:31:14;;;;;;;21.58;6.10;;;12.90;99.90;;;;;;5071145;28;20032;-67
2022/10/08 07:33:40;;;;;;;19.92;5.43;;;12.80;99.90;;;;;;5071282;28;20028;-67
2022/10/08 07:36:14;;;;;;;24.25;5.15;;;12.60;99.90;;;;;;5052162;28;20124;-67
2022/10/08 07:38:40;;;;;;;19.17;5.18;;;12.60;99.90;;;;;;5067698;28;20033;-67
2022/10/08 07:41:07;;;;;;;22.45;5.57;;;12.60;99.90;;;;;;5069080;28;20036;-68
2022/10/08 07:43:33;;;;;;;18.50;6.03;;;12.70;99.90;;;;;;5055784;28;20048;-68
2022/10/08 07:45:59;;;;;;;22.35;5.57;;;12.70;99.90;;;;;;5055803;28;20377;-67
2022/10/08 07:48:27;;;;;;;23.85;5.45;;;12.60;99.90;;;;;;5054496;28;20155;-66
2022/10/08 07:50:53;;;;;;;19.02;5.45;;;12.70;99.90;;;;;;5052513;28;20036;-67
2022/10/08 07:53:19;;;;;;;20.05;5.40;;;12.90;99.90;;;;;;5054089;28;20062;-69
2022/10/08 07:55:45;;;;;;;18.10;4.60;;;12.90;99.90;;;;;;5054908;28;20021;-67
2022/10/08 07:58:11;;;;;;;16.98;4.32;;;13.10;99.90;;;;;;5035315;28;20037;-67
2022/10/08 08:00:40;;;;;;;20.75;4.60;;;13.10;99.90;;;;;;5064559;28;20027;-66
2022/10/08 08:03:13;;;;;;;10.18;3.17;;;13.20;99.90;;;;;;5052208;28;20167;-67
2022/10/08 08:05:39;;;;;;;16.95;4.03;;;13.30;99.90;;;;;;5055461;28;20017;-66
2022/10/08 08:08:04;;;;;;;19.35;4.18;;;13.30;99.90;;;;;;5075459;28;20565;-66
2022/10/08 08:10:30;;;;;;;16.90;3.65;;;13.50;99.90;;;;;;5074868;28;20388;-66
2022/10/08 08:12:56;;;;;;;19.23;4.50;;;13.50;99.90;;;;;;5056323;28;20033;-66
2022/10/08 08:15:22;;;;;;;13.00;4.55;;;13.70;99.90;;;;;;5075133;28;20024;-67
2022/10/08 08:17:47;;;;;;;28.52;5.50;;;13.60;99.90;;;;;;5050954;28;20035;-68
2022/10/08 08:20:13;;;;;;;15.85;3.40;;;13.80;99.90;;;;;;5070528;28;20112;-66
2022/10/08 08:22:39;;;;;;;20.08;3.63;;;14.00;99.90;;;;;;5066940;28;20470;-66
2022/10/08 08:25:05;;;;;;;12.27;3.08;;;13.70;99.90;;;;;;5058740;28;20398;-69
2022/10/08 08:27:31;;;;;;;23.25;3.80;;;13.80;99.90;;;;;;5059781;28;20037;-67
2022/10/08 08:29:56;;;;;;;12.82;2.65;;;13.90;99.90;;;;;;5054569;28;20029;-67
2022/10/08 08:32:22;;;;;;;19.80;3.88;;;14.00;99.90;;;;;;5058736;28;20037;-66
2022/10/08 08:34:48;;;;;;;12.65;2.35;;;14.20;99.90;;;;;;5058288;28;20168;-67
2022/10/08 08:37:14;;;;;;;16.23;2.92;;;14.20;99.90;;;;;;5068557;28;20111;-67
2022/10/08 08:39:40;;;;;;;10.45;2.40;;;14.20;99.90;;;;;;5061710;28;20032;-66
2022/10/08 08:42:40;;;;;;;10.18;2.65;;;14.40;99.90;;;;;;5056366;28;20029;-66
2022/10/08 08:45:24;;;;;;;12.82;2.45;;;14.40;99.90;;;;;;5055843;28;20522;-65
2022/10/08 08:47:57;;;;;;;19.55;4.45;;;14.30;99.90;;;;;;5060455;28;20033;-66
2022/10/08 08:50:27;;;;;;;12.02;2.40;;;14.80;99.90;;;;;;5056836;28;20513;-66
2022/10/08 08:52:54;;;;;;;18.67;3.13;;;14.40;99.90;;;;;;5060397;28;20855;-66
2022/10/08 08:55:32;;;;;;;22.23;3.03;;;14.60;99.90;;;;;;5073065;28;20025;-66
2022/10/08 08:58:34;;;;;;;11.02;2.55;;;15.00;99.90;;;;;;5066058;28;20029;-68
2022/10/08 09:01:09;;;;;;;12.20;2.37;;;15.10;99.90;;;;;;5050966;28;20032;-66
2022/10/08 09:03:44;;;;;;;12.07;2.53;;;15.20;99.90;;;;;;5062761;28;20287;-67
2022/10/08 09:06:18;;;;;;;13.98;2.30;;;15.60;99.90;;;;;;5076052;28;20021;-67
2022/10/08 09:09:03;;;;;;;12.55;2.20;;;15.60;99.90;;;;;;5072848;28;20039;-70
2022/10/08 09:11:29;;;;;;;12.13;1.98;;;15.30;99.90;;;;;;5088568;28;20356;-67
2022/10/08 09:13:59;;;;;;;8.50;1.92;;;15.50;99.90;;;;;;5072937;28;20034;-69
2022/10/08 09:16:28;;;;;;;12.55;2.40;;;15.60;99.90;;;;;;5082301;28;20086;-67
2022/10/08 09:18:54;;;;;;;13.07;2.30;;;15.50;99.90;;;;;;5072643;28;20036;-68
2022/10/08 09:21:20;;;;;;;9.80;2.30;;;15.40;99.90;;;;;;5070603;28;20035;-66
2022/10/08 09:23:46;;;;;;;10.90;2.58;;;15.00;99.90;;;;;;5086012;28;20027;-67
2022/10/08 09:26:18;;;;;;;10.60;2.15;;;15.40;99.90;;;;;;5067519;28;20024;-68
2022/10/08 09:28:55;;;;;;;10.10;1.77;;;15.70;99.90;;;;;;5079964;28;20035;-68
2022/10/08 09:31:35;;;;;;;8.20;1.65;;;15.60;99.90;;;;;;5073208;28;20465;-67
2022/10/08 09:34:04;;;;;;;5.38;1.52;;;15.60;99.90;;;;;;5071505;28;20504;-66
2022/10/08 09:36:36;;;;;;;12.02;1.63;;;15.80;99.90;;;;;;5073094;28;20040;-67
2022/10/08 09:39:06;;;;;;;8.45;1.40;;;15.90;99.90;;;;;;5072233;28;20032;-66
2022/10/08 09:41:32;;;;;;;6.68;1.33;;;15.50;99.90;;;;;;5072419;28;20059;-66
2022/10/08 09:44:11;;;;;;;7.68;1.30;;;15.60;99.90;;;;;;5074208;28;20031;-67
2022/10/08 09:46:37;;;;;;;8.55;1.52;;;15.50;99.90;;;;;;5074984;28;20465;-67
2022/10/08 09:49:28;;;;;;;10.65;1.73;;;15.40;99.90;;;;;;5072126;28;20027;-66
2022/10/08 09:51:56;;;;;;;8.10;1.50;;;15.30;99.90;;;;;;5070649;28;20104;-66
2022/10/08 09:54:34;;;;;;;8.65;1.55;;;15.20;99.90;;;;;;5086662;28;20020;-67
2022/10/08 09:57:00;;;;;;;12.60;1.80;;;15.20;99.90;;;;;;5085005;28;20039;-66
2022/10/08 09:59:30;;;;;;;14.48;1.83;;;15.60;99.90;;;;;;5085281;28;20024;-66
2022/10/08 10:01:57;;;;;;;8.45;1.30;;;15.90;99.90;;;;;;5086459;28;20024;-67
2022/10/08 10:04:36;;;;;;;10.95;1.92;;;16.10;99.90;;;;;;5088889;28;20541;-67
2022/10/08 10:07:03;;;;;;;5.28;1.38;;;16.40;99.90;;;;;;5082648;28;20035;-66
2022/10/08 10:09:38;;;;;;;7.57;1.50;;;16.70;99.90;;;;;;5073757;28;20028;-67
2022/10/08 10:12:18;;;;;;;10.05;1.73;;;16.80;99.90;;;;;;5073829;28;20048;-66
2022/10/08 10:14:48;;;;;;;11.20;1.40;;;16.60;99.90;;;;;;5073901;28;20089;-69
2022/10/08 10:17:38;;;;;;;9.68;1.75;;;16.30;99.90;;;;;;5073775;28;20037;-66
2022/10/08 10:20:20;;;;;;;9.05;2.22;;;16.00;99.90;;;;;;5073498;28;20457;-68
2022/10/08 10:23:17;;;;;;;15.77;2.83;;;15.60;99.90;;;;;;5073267;28;20025;-67
2022/10/08 10:25:58;;;;;;;7.35;1.80;;;15.60;99.90;;;;;;5068711;28;20027;-68
2022/10/08 10:28:44;;;;;;;9.02;1.48;;;16.00;99.90;;;;;;5047761;28;20051;-68
2022/10/08 10:31:22;;;;;;;10.18;2.20;;;16.30;99.90;;;;;;5083672;28;20024;-67
2022/10/08 10:34:08;;;;;;;9.05;1.77;;;17.00;99.90;;;;;;5090108;28;20036;-66
2022/10/08 10:36:40;;;;;;;8.20;1.17;;;17.50;99.90;;;;;;5085467;28;20166;-66
2022/10/08 10:39:30;;;;;;;8.15;1.80;;;17.50;99.90;;;;;;5088124;28;20126;-66
2022/10/08 10:42:07;;;;;;;9.10;1.60;;;17.60;99.90;;;;;;5067404;28;20029;-69
2022/10/08 10:44:57;;;;;;;6.18;1.30;;;18.00;99.90;;;;;;5054880;28;20244;-66
2022/10/08 10:47:28;;;;;;;9.87;1.60;;;18.00;99.90;;;;;;5079686;28;20067;-67
2022/10/08 10:49:54;;;;;;;10.00;1.55;;;18.40;99.90;;;;;;5072920;28;20089;-68
2022/10/08 10:52:51;;;;;;;5.85;1.48;;;17.60;99.90;;;;;;5078629;28;20033;-67
2022/10/08 10:55:38;;;;;;;4.45;1.38;;;17.40;99.90;;;;;;5083477;28;20035;-68
2022/10/08 10:58:35;;;;;;;4.95;1.30;;;17.10;99.90;;;;;;5074159;28;20075;-67
2022/10/08 11:01:25;;;;;;;9.27;1.90;;;17.20;99.90;;;;;;5071713;28;20093;-68
2022/10/08 11:04:07;;;;;;;5.88;1.50;;;17.10;99.90;;;;;;5072627;28;20029;-67
2022/10/08 11:06:45;;;;;;;11.55;2.58;;;17.70;99.90;;;;;;5071001;28;20086;-68
2022/10/08 11:09:35;;;;;;;12.60;2.67;;;17.10;99.90;;;;;;5068869;28;20476;-70
2022/10/08 11:12:08;;;;;;;8.73;1.70;;;17.20;99.90;;;;;;5069371;28;20037;-68
2022/10/08 11:14:46;;;;;;;7.78;1.40;;;17.30;99.90;;;;;;5067940;28;20384;-67
2022/10/08 11:17:23;;;;;;;8.68;1.52;;;18.50;99.90;;;;;;5071351;28;20016;-67
2022/10/08 11:20:14;;;;;;;13.40;2.60;;;18.50;99.90;;;;;;5070617;28;20033;-68
2022/10/08 11:22:57;;;;;;;4.75;1.30;;;18.20;99.90;;;;;;5071058;28;20024;-67
2022/10/08 11:26:04;;;;;;;7.25;1.30;;;17.80;99.50;;;;;;5071508;28;20503;-68
2022/10/08 11:29:05;;;;;;;10.25;1.75;;;18.50;98.80;;;;;;5004490;28;20593;-68
2022/10/08 11:31:49;;;;;;;11.75;1.80;;;19.30;98.10;;;;;;5009736;28;20549;-68
2022/10/08 11:34:29;;;;;;;4.22;1.27;;;19.80;97.80;;;;;;5059748;28;20041;-68
2022/10/08 11:37:07;;;;;;;7.60;1.35;;;20.60;96.80;;;;;;5070788;28;20056;-68
2022/10/08 11:39:48;;;;;;;4.45;1.10;;;20.00;96.90;;;;;;5072067;28;20021;-68
2022/10/08 11:42:29;;;;;;;5.30;1.23;;;20.50;96.70;;;;;;5069703;28;20465;-68
2022/10/08 11:45:24;;;;;;;6.65;1.55;;;20.50;95.80;;;;;;5053414;28;20162;-68
2022/10/08 11:47:58;;;;;;;6.47;1.42;;;19.70;96.00;;;;;;5071777;28;20123;-67
2022/10/08 11:50:30;;;;;;;7.43;1.60;;;19.80;96.50;;;;;;5071130;28;20020;-67
2022/10/08 11:53:13;;;;;;;10.40;1.80;;;20.10;96.60;;;;;;5071717;28;20041;-68
2022/10/08 11:55:47;;;;;;;8.20;1.50;;;19.00;97.30;;;;;;5071645;28;20024;-68
2022/10/08 11:58:22;;;;;;;8.00;1.58;;;19.70;98.00;;;;;;5071848;28;20114;-67
2022/10/08 12:00:50;;;;;;;8.65;1.63;;;20.60;96.40;;;;;;5071926;28;20412;-69
2022/10/08 12:03:26;;;;;;;7.32;1.45;;;20.40;96.10;;;;;;5068124;28;20087;-68
2022/10/08 12:05:56;;;;;;;7.47;1.42;;;20.90;95.70;;;;;;5047562;28;20033;-68
2022/10/08 12:08:51;;;;;;;7.57;1.73;;;21.30;93.90;;;;;;5048508;28;20069;-67
2022/10/08 12:11:36;;;;;;;6.93;1.45;;;21.20;94.40;;;;;;5068148;28;20028;-67
2022/10/08 12:14:14;;;;;;;10.05;1.80;;;21.60;94.50;;;;;;5070449;28;20029;-67
2022/10/08 12:16:57;;;;;;;6.45;1.63;;;21.40;94.40;;;;;;5068487;28;20021;-67
2022/10/08 12:19:35;;;;;;;9.27;1.75;;;21.10;94.60;;;;;;5074169;28;20028;-68
2022/10/08 12:22:24;;;;;;;6.72;1.67;;;19.50;97.60;;;;;;5067019;28;20035;-67
2022/10/08 12:24:57;;;;;;;7.05;1.60;;;19.00;97.30;;;;;;5082793;28;20028;-66
2022/10/08 12:27:27;;;;;;;7.95;1.67;;;18.60;97.60;;;;;;5085408;28;20388;-67
2022/10/08 12:29:58;;;;;;;10.48;2.30;;;19.10;96.70;;;;;;5087174;28;20031;-67
2022/10/08 12:32:49;;;;;;;7.30;1.48;;;18.90;96.90;;;;;;5084628;28;20082;-67
2022/10/08 12:35:22;;;;;;;8.30;1.55;;;19.70;96.10;;;;;;5067347;28;20089;-67
2022/10/08 12:38:15;;;;;;;4.45;1.02;;;19.80;95.20;;;;;;5078042;28;20024;-69
2022/10/08 12:41:04;;;;;;;8.77;1.40;;;19.30;97.30;;;;;;5073370;28;20052;-68
2022/10/08 12:43:40;;;;;;;8.38;1.23;;;20.20;96.00;;;;;;5063964;28;20043;-74
2022/10/08 12:46:16;;;;;;;5.60;1.50;;;21.60;94.60;;;;;;5071626;28;20525;-71
2022/10/08 12:49:00;;;;;;;9.50;1.65;;;21.30;93.90;;;;;;5060882;28;20056;-67
2022/10/08 12:51:47;;;;;;;6.60;1.13;;;21.00;94.10;;;;;;5069115;28;20027;-67
2022/10/08 12:54:25;;;;;;;6.05;1.25;;;21.00;92.60;;;;;;5075297;28;20120;-68
2022/10/08 12:56:51;;;;;;;10.73;1.88;;;21.90;91.90;;;;;;5062595;28;20104;-67
2022/10/08 12:59:19;;;;;;;5.60;1.60;;;21.60;91.50;;;;;;5075060;28;20021;-67
2022/10/08 13:01:47;;;;;;;8.07;1.55;;;20.60;92.30;;;;;;5066227;28;20025;-67
2022/10/08 13:04:18;;;;;;;7.57;2.28;;;19.10;95.70;;;;;;5082603;28;20027;-67